Time;durP1;ratioP1;P1;durP2;ratioP2;P2;SDS_P1;SDS_P2;PMS_P1;PMS_P2;Temp;Humidity;BMP_temperature;BMP_pressure;BME280_temperature;BME280_humidity;BME280_pressure;Samples;Min_cycle;Max_cycle;Signal;HPM_P1;HPM_P2
2022/06/27 06:06:51;;;;;;;1.40;1.30;;;17.20;99.90;;;;;;4141597;28;20259;-70
2022/06/27 06:08:53;;;;;;;3.83;3.53;;;17.30;99.90;;;;;;4128116;28;20278;-70
2022/06/27 06:10:54;;;;;;;1.77;1.23;;;17.40;99.90;;;;;;4145414;28;20178;-70
2022/06/27 06:12:55;;;;;;;1.83;1.53;;;17.30;99.90;;;;;;4146006;28;20227;-71
2022/06/27 06:15:01;;;;;;;2.77;2.57;;;17.50;99.90;;;;;;4128496;28;20186;-70
2022/06/27 06:17:03;;;;;;;15.47;14.63;;;17.70;99.90;;;;;;4146002;28;20181;-70
2022/06/27 06:19:04;;;;;;;2.50;0.90;;;17.70;99.90;;;;;;4146025;28;20174;-71
2022/06/27 06:21:05;;;;;;;1.50;1.40;;;17.70;99.90;;;;;;4145018;28;20213;-70
2022/06/27 06:23:05;;;;;;;1.60;1.50;;;17.80;99.90;;;;;;4146074;28;20213;-70
2022/06/27 06:25:07;;;;;;;3.00;2.80;;;17.70;99.90;;;;;;4145906;28;20224;-71
2022/06/27 06:27:07;;;;;;;2.53;2.43;;;17.70;99.90;;;;;;4145872;28;20196;-71
2022/06/27 06:29:14;;;;;;;1.57;1.00;;;17.50;99.90;;;;;;4145933;28;20174;-70
2022/06/27 06:31:22;;;;;;;1.50;1.20;;;17.30;99.90;;;;;;4145127;28;20174;-70
2022/06/27 06:33:23;;;;;;;1.20;1.10;;;17.50;99.90;;;;;;4145915;28;20733;-70
2022/06/27 06:35:24;;;;;;;2.00;1.87;;;17.60;99.90;;;;;;4128296;28;20182;-70
2022/06/27 06:37:27;;;;;;;1.33;1.23;;;17.60;99.90;;;;;;4145856;28;20774;-70
2022/06/27 06:39:28;;;;;;;1.20;1.20;;;17.70;99.90;;;;;;4145867;28;20174;-70
2022/06/27 06:41:28;;;;;;;3.50;3.30;;;17.80;99.90;;;;;;4145009;28;20640;-71
2022/06/27 06:43:29;;;;;;;1.50;1.30;;;18.00;99.90;;;;;;4145780;28;20292;-70
2022/06/27 06:45:30;;;;;;;1.40;1.30;;;18.10;99.90;;;;;;4143561;28;20193;-70
2022/06/27 06:47:31;;;;;;;1.30;1.20;;;18.00;99.90;;;;;;4139632;28;20201;-70
2022/06/27 06:49:32;;;;;;;1.43;1.33;;;18.20;99.90;;;;;;4145811;28;20197;-71
2022/06/27 06:51:34;;;;;;;1.70;1.60;;;18.60;99.90;;;;;;4145140;28;20205;-70
2022/06/27 06:53:36;;;;;;;1.60;1.00;;;18.80;99.50;;;;;;4145871;28;20193;-71
2022/06/27 06:55:37;;;;;;;3.63;3.43;;;18.70;99.40;;;;;;4145901;28;20321;-70
2022/06/27 06:57:38;;;;;;;1.80;0.90;;;18.70;97.60;;;;;;4144679;28;20185;-70
2022/06/27 06:59:39;;;;;;;1.37;1.33;;;18.60;98.30;;;;;;4144740;28;20192;-70
2022/06/27 07:01:39;;;;;;;0.90;0.90;;;18.70;98.10;;;;;;4148494;28;20193;-71
2022/06/27 07:03:40;;;;;;;3.13;1.00;;;18.70;98.30;;;;;;4149024;28;20582;-70
2022/06/27 07:05:40;;;;;;;30.73;28.97;;;18.90;98.50;;;;;;4149098;28;20181;-70
2022/06/27 07:07:42;;;;;;;30.00;28.27;;;19.20;96.80;;;;;;4148863;28;20169;-71
2022/06/27 07:09:42;;;;;;;2.13;2.03;;;19.00;95.60;;;;;;4148913;28;20173;-72
2022/06/27 07:11:45;;;;;;;6.73;6.43;;;18.80;95.90;;;;;;4148169;28;20275;-70
2022/06/27 07:13:45;;;;;;;12.10;11.27;;;18.70;96.50;;;;;;4148815;28;20178;-70
2022/06/27 07:15:47;;;;;;;4.50;4.20;;;18.70;96.70;;;;;;4148820;28;20260;-70
2022/06/27 07:17:52;;;;;;;0.80;0.80;;;18.40;96.80;;;;;;4147572;28;20248;-70
2022/06/27 07:19:53;;;;;;;2.67;1.97;;;18.50;97.30;;;;;;4148840;28;20209;-70
2022/06/27 07:21:54;;;;;;;6.27;5.87;;;18.30;97.80;;;;;;4148100;28;20244;-70
2022/06/27 07:23:55;;;;;;;2.10;2.00;;;18.40;96.80;;;;;;4147351;28;20205;-71
2022/06/27 07:25:56;;;;;;;2.43;2.23;;;18.40;97.60;;;;;;4148750;28;20193;-71
2022/06/27 07:27:59;;;;;;;1.70;1.00;;;18.50;96.70;;;;;;4148551;28;20178;-72
2022/06/27 07:30:02;;;;;;;8.53;8.03;;;18.80;97.80;;;;;;4148630;28;20664;-72
2022/06/27 07:32:04;;;;;;;1.63;1.57;;;18.90;96.00;;;;;;4148066;28;20782;-71
2022/06/27 07:34:08;;;;;;;2.50;2.40;;;19.00;95.80;;;;;;4148513;28;20184;-72
2022/06/27 07:36:16;;;;;;;6.07;5.77;;;19.10;95.50;;;;;;4147361;28;20560;-71
2022/06/27 07:38:16;;;;;;;1.77;1.30;;;18.90;94.70;;;;;;4148581;28;20181;-71
2022/06/27 07:40:22;;;;;;;1.10;1.00;;;19.00;95.50;;;;;;4148457;28;20189;-72
2022/06/27 07:42:23;;;;;;;30.37;28.57;;;19.50;94.20;;;;;;4147356;28;20200;-72
2022/06/27 07:44:25;;;;;;;8.60;8.17;;;19.40;92.50;;;;;;4148382;28;20233;-71
2022/06/27 07:46:26;;;;;;;1.07;1.07;;;19.50;92.30;;;;;;4148278;28;20173;-72
2022/06/27 07:48:28;;;;;;;3.67;3.47;;;19.50;92.00;;;;;;4148529;28;20181;-72
2022/06/27 07:50:39;;;;;;;13.50;12.83;;;19.40;93.60;;;;;;4148226;28;20268;-72
2022/06/27 07:55:00;;;;;;;3.97;3.67;;;18.50;94.70;;;;;;4148366;28;20184;-73
2022/06/27 07:57:02;;;;;;;4.53;4.17;;;18.50;95.70;;;;;;4148117;28;20176;-72
2022/06/27 07:59:05;;;;;;;26.70;24.80;;;18.40;95.80;;;;;;4148191;28;20186;-71
2022/06/27 08:01:11;;;;;;;1.57;1.47;;;18.20;96.10;;;;;;4147322;28;20181;-71
2022/06/27 08:05:32;;;;;;;7.07;6.67;;;18.20;97.50;;;;;;4148012;28;20185;-71
2022/06/27 08:07:32;;;;;;;1.47;1.37;;;18.50;96.50;;;;;;4130208;28;20170;-71
2022/06/27 08:09:33;;;;;;;1.47;1.37;;;18.40;96.80;;;;;;4147749;28;20217;-72
2022/06/27 08:11:38;;;;;;;25.33;23.90;;;18.50;96.50;;;;;;4146202;28;20276;-71
2022/06/27 08:13:40;;;;;;;4.70;4.30;;;18.70;95.00;;;;;;4147941;28;20668;-72
2022/06/27 08:15:41;;;;;;;1.30;1.20;;;18.70;94.90;;;;;;4147855;28;20170;-72
2022/06/27 08:17:42;;;;;;;2.27;2.07;;;19.00;94.80;;;;;;4147959;28;20192;-72
2022/06/27 08:19:43;;;;;;;13.40;12.70;;;19.00;95.10;;;;;;4147798;28;20213;-72
2022/06/27 08:21:44;;;;;;;10.50;9.87;;;19.10;94.10;;;;;;4146836;28;20204;-72
2022/06/27 08:23:45;;;;;;;16.97;15.87;;;19.40;92.20;;;;;;4138078;28;20217;-72
2022/06/27 08:25:47;;;;;;;9.50;8.97;;;19.50;92.20;;;;;;4145911;28;20178;-72
2022/06/27 08:27:48;;;;;;;8.47;8.07;;;19.60;92.60;;;;;;4147379;28;20178;-72
2022/06/27 08:29:48;;;;;;;1.27;1.17;;;19.80;92.00;;;;;;4130060;28;20923;-73
2022/06/27 08:31:52;;;;;;;3.13;2.93;;;20.10;91.00;;;;;;4146819;28;20255;-72
2022/06/27 08:33:58;;;;;;;1.90;1.60;;;20.20;90.30;;;;;;4147441;28;20181;-72
2022/06/27 08:36:01;;;;;;;2.23;1.70;;;20.50;90.20;;;;;;4147489;28;20173;-72
2022/06/27 08:38:02;;;;;;;3.33;3.13;;;20.70;87.30;;;;;;4147429;28;20276;-71
2022/06/27 08:40:04;;;;;;;2.47;2.27;;;20.70;85.60;;;;;;4131282;28;20256;-72
2022/06/27 08:42:04;;;;;;;1.47;1.30;;;20.60;85.10;;;;;;4130362;28;20206;-72
2022/06/27 08:44:06;;;;;;;37.43;35.30;;;20.10;91.60;;;;;;4147895;28;20210;-73
2022/06/27 08:46:09;;;;;;;20.63;19.50;;;20.40;88.20;;;;;;4148153;28;20642;-72
2022/06/27 08:48:13;;;;;;;3.13;2.57;;;20.60;84.90;;;;;;4148099;28;20178;-72
2022/06/27 08:50:14;;;;;;;5.00;4.40;;;20.70;86.40;;;;;;4148243;28;20594;-72
2022/06/27 08:52:15;;;;;;;1.67;1.57;;;20.70;84.50;;;;;;4147155;28;20264;-72
2022/06/27 08:54:16;;;;;;;41.37;39.10;;;20.80;82.60;;;;;;4147970;28;20235;-71
2022/06/27 08:56:17;;;;;;;1.60;1.50;;;20.60;84.90;;;;;;4130477;28;20194;-71
2022/06/27 08:58:19;;;;;;;6.50;6.17;;;20.40;88.10;;;;;;4130620;28;20210;-71
2022/06/27 09:00:22;;;;;;;2.83;1.63;;;20.40;85.80;;;;;;4148140;28;20840;-71
2022/06/27 09:02:23;;;;;;;2.00;1.90;;;20.50;86.00;;;;;;4148111;28;20695;-71
2022/06/27 09:04:23;;;;;;;1.77;1.67;;;20.70;84.80;;;;;;4147917;28;20209;-72
2022/06/27 09:06:26;;;;;;;6.73;6.33;;;21.20;81.10;;;;;;4148106;28;20181;-71
2022/06/27 09:08:31;;;;;;;2.67;2.47;;;21.20;77.30;;;;;;4147981;28;20185;-72
2022/06/27 09:10:37;;;;;;;2.07;1.90;;;21.10;77.70;;;;;;4147682;28;20165;-72
2022/06/27 09:13:13;;;;;;;3.27;3.07;;;21.20;77.80;;;;;;4147201;28;20205;-72
2022/06/27 09:15:13;;;;;;;1.87;1.77;;;21.00;78.30;;;;;;4147279;28;20197;-72
2022/06/27 09:17:15;;;;;;;60.37;57.13;;;21.40;77.80;;;;;;4147737;28;20166;-72
2022/06/27 09:19:16;;;;;;;2.50;2.40;;;21.70;74.00;;;;;;4147734;28;20166;-72
2022/06/27 09:21:17;;;;;;;2.50;2.07;;;21.40;74.80;;;;;;4129503;28;20213;-71
2022/06/27 09:23:53;;;;;;;21.90;20.70;;;21.40;75.50;;;;;;4147518;28;20274;-72
2022/06/27 09:25:59;;;;;;;3.57;1.50;;;21.00;78.10;;;;;;4147849;28;20169;-72
2022/06/27 09:28:01;;;;;;;1.97;1.87;;;21.20;78.80;;;;;;4147564;28;20634;-72
2022/06/27 09:30:22;;;;;;;1.90;1.80;;;21.50;75.50;;;;;;4130062;28;20217;-71
2022/06/27 09:32:25;;;;;;;1.97;1.60;;;22.20;75.20;;;;;;4146970;28;20770;-71
2022/06/27 09:34:26;;;;;;;5.90;5.50;;;22.50;72.10;;;;;;4129906;28;20209;-72
2022/06/27 09:36:28;;;;;;;75.10;71.10;;;22.10;71.30;;;;;;4149612;28;20268;-72
2022/06/27 09:38:31;;;;;;;35.57;33.70;;;21.80;71.00;;;;;;4149930;28;20174;-72
2022/06/27 09:40:33;;;;;;;1.40;1.30;;;21.10;75.50;;;;;;4150311;28;20177;-72
2022/06/27 09:42:33;;;;;;;2.10;1.53;;;21.00;78.70;;;;;;4131887;28;20260;-72
2022/06/27 09:44:38;;;;;;;3.60;3.33;;;20.90;80.70;;;;;;4149895;28;20205;-72
2022/06/27 09:46:45;;;;;;;1.40;1.30;;;20.70;79.10;;;;;;4150286;28;20174;-72
2022/06/27 09:48:46;;;;;;;5.97;5.60;;;20.60;80.20;;;;;;4149799;28;20196;-72
2022/06/27 09:50:48;;;;;;;2.40;2.30;;;20.70;79.20;;;;;;4149548;28;20185;-71
2022/06/27 09:52:50;;;;;;;1.60;1.50;;;20.90;80.00;;;;;;4149875;28;20584;-71
2022/06/27 09:54:53;;;;;;;1.53;1.33;;;21.00;79.50;;;;;;4149773;28;20174;-72
2022/06/27 09:56:55;;;;;;;14.67;13.77;;;20.90;79.20;;;;;;4149925;28;20166;-71
2022/06/27 09:58:56;;;;;;;1.60;1.50;;;20.60;80.50;;;;;;4149924;28;20174;-71
2022/06/27 10:00:57;;;;;;;1.80;1.47;;;20.30;82.40;;;;;;4149349;28;20789;-71
2022/06/27 10:02:59;;;;;;;25.87;24.37;;;20.50;83.40;;;;;;4132461;28;20214;-71
2022/06/27 10:05:00;;;;;;;1.93;1.47;;;20.30;82.00;;;;;;4149714;28;20181;-72
2022/06/27 10:07:03;;;;;;;1.60;1.27;;;20.00;85.10;;;;;;4149734;28;20233;-72
2022/06/27 10:09:08;;;;;;;1.43;1.30;;;20.20;85.10;;;;;;4149982;28;20174;-72
2022/06/27 10:11:10;;;;;;;3.23;1.30;;;20.50;84.80;;;;;;4149131;28;20168;-72
2022/06/27 10:13:11;;;;;;;3.83;3.60;;;20.50;83.90;;;;;;4149843;28;20177;-72
2022/06/27 10:15:14;;;;;;;1.50;1.40;;;20.20;82.50;;;;;;4149594;28;20185;-72
2022/06/27 10:17:15;;;;;;;2.63;1.70;;;20.30;83.60;;;;;;4146148;28;20177;-72
2022/06/27 10:19:16;;;;;;;22.77;21.53;;;20.20;83.30;;;;;;4146127;28;20667;-72
2022/06/27 10:21:30;;;;;;;2.57;1.37;;;20.20;81.80;;;;;;4145328;28;20221;-72
2022/06/27 10:23:32;;;;;;;2.60;1.40;;;20.30;80.40;;;;;;4146133;28;20743;-72
2022/06/27 10:25:46;;;;;;;2.00;1.80;;;20.30;83.00;;;;;;4145911;28;20177;-72
2022/06/27 10:28:12;;;;;;;1.57;1.43;;;20.40;81.80;;;;;;4128363;28;20205;-72
2022/06/27 10:30:38;;;;;;;41.83;39.40;;;20.30;82.60;;;;;;4128076;28;20871;-72
2022/06/27 10:32:44;;;;;;;19.30;18.17;;;20.20;81.90;;;;;;4127383;28;20198;-71
2022/06/27 10:34:46;;;;;;;2.17;1.93;;;20.00;82.30;;;;;;4145414;28;20213;-71
2022/06/27 10:37:07;;;;;;;5.17;4.77;;;20.20;82.70;;;;;;4145698;28;20675;-71
2022/06/27 10:39:19;;;;;;;9.20;8.67;;;20.20;81.50;;;;;;4145625;28;20185;-71
2022/06/27 10:41:19;;;;;;;1.90;1.60;;;19.80;82.10;;;;;;4145396;28;20271;-71
2022/06/27 10:43:44;;;;;;;13.70;12.80;;;19.70;83.40;;;;;;4145877;28;20205;-72
2022/06/27 10:45:45;;;;;;;1.93;1.80;;;20.00;82.90;;;;;;4145930;28;20202;-72
2022/06/27 10:47:46;;;;;;;3.53;3.30;;;19.90;81.00;;;;;;4145792;28;20228;-72
2022/06/27 10:50:10;;;;;;;2.00;1.80;;;19.70;80.90;;;;;;4145903;28;20525;-71
2022/06/27 10:52:23;;;;;;;3.17;1.40;;;19.80;81.80;;;;;;4144725;28;20288;-71
2022/06/27 10:54:36;;;;;;;2.60;2.47;;;19.90;82.70;;;;;;4145687;28;20204;-71
2022/06/27 10:56:51;;;;;;;2.27;1.60;;;19.60;81.10;;;;;;4145735;28;20527;-71
2022/06/27 10:58:52;;;;;;;7.80;5.33;;;19.70;79.70;;;;;;4145739;28;20178;-71
2022/06/27 11:01:14;;;;;;;9.03;8.47;;;20.10;79.10;;;;;;4145128;28;20239;-71
2022/06/27 11:03:24;;;;;;;1.77;1.67;;;20.00;77.30;;;;;;4145666;28;20209;-71
2022/06/27 11:05:24;;;;;;;3.60;2.17;;;20.20;77.30;;;;;;4145738;28;20535;-71
2022/06/27 11:07:25;;;;;;;1.83;1.37;;;20.30;77.50;;;;;;4127976;28;20179;-71
2022/06/27 11:09:39;;;;;;;1.60;1.50;;;20.50;78.30;;;;;;4145586;28;20186;-70
2022/06/27 11:11:41;;;;;;;2.03;1.70;;;20.50;73.90;;;;;;4127540;28;20217;-70
2022/06/27 11:13:50;;;;;;;2.07;1.23;;;20.30;74.60;;;;;;4145758;28;20181;-70
2022/06/27 11:15:51;;;;;;;1.83;1.73;;;20.50;75.80;;;;;;4145658;28;20599;-70
2022/06/27 11:17:51;;;;;;;1.37;1.27;;;20.30;72.80;;;;;;4145695;28;20182;-71
2022/06/27 11:20:15;;;;;;;1.57;1.10;;;20.30;73.70;;;;;;4145648;28;20193;-71
2022/06/27 11:22:20;;;;;;;2.27;1.67;;;19.90;76.00;;;;;;4145012;28;20212;-71
2022/06/27 11:24:22;;;;;;;1.00;1.00;;;20.40;75.70;;;;;;4145654;28;20218;-71
2022/06/27 11:26:26;;;;;;;5.47;5.17;;;20.50;74.50;;;;;;4145536;28;20189;-71
2022/06/27 11:33:11;;;;;;;3.23;3.03;;;20.40;74.90;;;;;;4145858;28;20243;-71
2022/06/27 11:35:12;;;;;;;1.93;1.60;;;20.30;74.50;;;;;;4145436;28;20194;-71
2022/06/27 11:37:15;;;;;;;2.47;2.37;;;20.70;74.70;;;;;;4144993;28;20676;-71
2022/06/27 11:39:25;;;;;;;4.60;4.40;;;20.90;72.40;;;;;;4145301;28;20185;-71
2022/06/27 11:41:28;;;;;;;4.87;4.67;;;20.90;72.30;;;;;;4144726;28;20197;-71
2022/06/27 11:44:07;;;;;;;51.53;48.80;;;20.50;74.00;;;;;;4145278;28;20209;-71
2022/06/27 11:46:08;;;;;;;19.47;18.40;;;19.80;74.20;;;;;;4128090;28;20225;-70
2022/06/27 11:48:15;;;;;;;6.43;5.83;;;19.30;76.90;;;;;;4147878;28;20169;-71
2022/06/27 11:50:18;;;;;;;4.80;4.57;;;19.30;79.00;;;;;;4148429;28;20683;-70
2022/06/27 11:52:18;;;;;;;1.63;1.50;;;19.20;78.20;;;;;;4129752;28;20237;-70
2022/06/27 11:54:20;;;;;;;1.37;1.27;;;19.30;78.20;;;;;;4148328;28;20181;-71
2022/06/27 11:56:24;;;;;;;5.30;5.00;;;19.50;78.20;;;;;;4148142;28;20197;-70
2022/06/27 11:58:24;;;;;;;2.80;2.10;;;19.80;77.10;;;;;;4148129;28;20204;-70
2022/06/27 12:00:30;;;;;;;1.30;1.20;;;20.00;74.80;;;;;;4147910;28;20233;-71
2022/06/27 12:02:36;;;;;;;1.87;1.30;;;20.20;74.40;;;;;;4147252;28;20203;-71
2022/06/27 12:04:37;;;;;;;35.67;33.77;;;20.10;74.70;;;;;;4147805;28;20217;-70
2022/06/27 12:06:42;;;;;;;2.33;2.23;;;20.50;73.30;;;;;;4147897;28;20589;-70
2022/06/27 12:08:59;;;;;;;7.43;7.00;;;20.30;73.10;;;;;;4147814;28;20189;-70
2022/06/27 12:11:18;;;;;;;14.90;13.97;;;20.30;73.20;;;;;;4147407;28;20200;-70
2022/06/27 12:13:18;;;;;;;16.07;15.27;;;20.20;72.20;;;;;;4147914;28;20207;-70
2022/06/27 12:15:20;;;;;;;2.47;2.27;;;19.90;72.50;;;;;;4148120;28;20228;-70
2022/06/27 12:17:23;;;;;;;1.53;1.43;;;19.60;74.80;;;;;;4148205;28;20232;-71
2022/06/27 12:19:26;;;;;;;1.20;1.10;;;19.60;75.40;;;;;;4147844;28;20177;-71
2022/06/27 12:21:26;;;;;;;11.67;10.97;;;19.80;74.60;;;;;;4147139;28;20212;-72
2022/06/27 12:23:27;;;;;;;9.00;8.50;;;19.80;74.80;;;;;;4147760;28;20209;-71
2022/06/27 12:25:29;;;;;;;2.17;1.97;;;19.70;76.40;;;;;;4147742;28;20186;-71
2022/06/27 12:27:29;;;;;;;2.63;2.43;;;19.90;76.40;;;;;;4147676;28;20212;-71
2022/06/27 12:29:31;;;;;;;4.13;3.90;;;19.80;76.60;;;;;;4147648;28;20178;-71
2022/06/27 12:31:33;;;;;;;5.27;4.97;;;19.80;77.10;;;;;;4147060;28;20268;-71
2022/06/27 12:33:33;;;;;;;2.57;2.47;;;19.50;77.00;;;;;;4147824;28;20205;-70
2022/06/27 12:35:34;;;;;;;3.07;2.33;;;19.50;77.00;;;;;;4147660;28;20235;-71
2022/06/27 12:37:36;;;;;;;9.47;8.93;;;19.60;77.10;;;;;;4147502;28;20184;-71
2022/06/27 12:39:37;;;;;;;19.27;18.23;;;19.80;76.30;;;;;;4147389;28;20197;-71
2022/06/27 12:41:38;;;;;;;2.60;1.67;;;20.00;75.20;;;;;;4146329;28;20699;-71
2022/06/27 12:43:40;;;;;;;1.50;1.40;;;20.00;76.00;;;;;;4147411;28;20561;-71
2022/06/27 12:45:40;;;;;;;1.40;1.30;;;20.10;74.70;;;;;;4147335;28;20185;-71
2022/06/27 12:47:41;;;;;;;3.87;3.57;;;19.70;77.60;;;;;;4147395;28;20178;-71
2022/06/27 12:49:42;;;;;;;1.67;1.40;;;19.80;76.10;;;;;;4147377;28;20244;-72
2022/06/27 12:51:42;;;;;;;3.53;2.50;;;19.80;75.80;;;;;;4146325;28;20210;-70
2022/06/27 12:53:43;;;;;;;1.50;1.10;;;20.10;75.10;;;;;;4147239;28;20722;-71
2022/06/27 12:55:43;;;;;;;2.13;1.93;;;19.80;75.70;;;;;;4147170;28;21334;-71
2022/06/27 12:57:44;;;;;;;2.03;1.17;;;19.60;77.20;;;;;;4146852;28;20209;-71
2022/06/27 12:59:44;;;;;;;7.83;7.43;;;19.40;77.60;;;;;;4147358;28;20209;-71
2022/06/27 13:01:45;;;;;;;1.60;1.50;;;19.00;80.90;;;;;;4146510;28;20193;-71
2022/06/27 13:03:46;;;;;;;2.47;2.37;;;18.90;81.80;;;;;;4147028;28;20235;-71
2022/06/27 13:05:46;;;;;;;1.43;1.30;;;18.90;81.70;;;;;;4129496;28;20233;-71
2022/06/27 13:07:47;;;;;;;11.07;10.47;;;18.90;83.10;;;;;;4146783;28;20224;-71
2022/06/27 13:09:48;;;;;;;1.60;1.50;;;19.00;82.20;;;;;;4146973;28;20212;-71
2022/06/27 13:11:48;;;;;;;2.43;2.17;;;19.00;81.10;;;;;;4128642;28;20285;-71
2022/06/27 13:13:49;;;;;;;3.37;3.07;;;19.10;81.40;;;;;;4146891;28;20190;-71
2022/06/27 13:15:49;;;;;;;1.70;1.60;;;19.20;81.40;;;;;;4129399;28;20245;-71
2022/06/27 13:17:50;;;;;;;2.17;1.40;;;19.40;81.30;;;;;;4146924;28;20188;-71
2022/06/27 13:19:51;;;;;;;2.40;1.27;;;19.50;80.60;;;;;;4146972;28;20178;-71
2022/06/27 13:21:52;;;;;;;1.53;1.33;;;19.50;81.00;;;;;;4146159;28;20238;-71
2022/06/27 13:23:52;;;;;;;1.70;1.50;;;19.50;80.40;;;;;;4146715;28;20271;-70
2022/06/27 13:25:53;;;;;;;3.30;3.00;;;19.70;78.50;;;;;;4146740;28;20170;-71
2022/06/27 13:27:53;;;;;;;2.70;1.43;;;19.50;79.60;;;;;;4146673;28;20270;-71
2022/06/27 13:29:54;;;;;;;1.33;1.23;;;19.60;79.20;;;;;;4146708;28;20277;-71
2022/06/27 13:31:55;;;;;;;2.73;1.43;;;19.80;78.60;;;;;;4145952;28;20985;-71
2022/06/27 13:33:55;;;;;;;3.43;1.30;;;19.60;79.70;;;;;;4146626;28;20239;-71
2022/06/27 13:35:56;;;;;;;1.43;1.30;;;19.90;78.00;;;;;;4146601;28;20182;-71
2022/06/27 13:37:57;;;;;;;1.40;1.30;;;20.20;78.60;;;;;;4146606;28;20177;-70
2022/06/27 13:39:58;;;;;;;1.70;1.60;;;20.30;76.30;;;;;;4146468;28;20581;-71
2022/06/27 13:42:02;;;;;;;1.40;1.30;;;20.80;74.50;;;;;;4145358;28;20228;-71
2022/06/27 13:44:03;;;;;;;1.57;1.40;;;20.70;74.40;;;;;;4146318;28;20644;-71
2022/06/27 13:46:03;;;;;;;1.60;1.50;;;20.50;77.00;;;;;;4146470;28;20277;-71
2022/06/27 13:48:04;;;;;;;1.50;1.40;;;20.30;78.10;;;;;;4146538;28;20224;-71
2022/06/27 13:50:06;;;;;;;2.90;1.10;;;20.10;78.60;;;;;;4146367;28;20252;-71
2022/06/27 13:52:06;;;;;;;1.67;1.57;;;20.00;78.90;;;;;;4145808;28;20206;-71
2022/06/27 13:54:07;;;;;;;1.70;1.60;;;19.90;82.40;;;;;;4128819;28;20263;-71
2022/06/27 13:56:07;;;;;;;2.80;1.63;;;20.00;77.80;;;;;;4146291;28;20278;-71
2022/06/27 13:58:08;;;;;;;2.87;1.37;;;19.80;80.80;;;;;;4146425;28;20181;-71
2022/06/27 14:00:09;;;;;;;1.70;1.37;;;19.80;81.00;;;;;;4146490;28;20185;-71
2022/06/27 14:02:10;;;;;;;1.53;1.40;;;19.90;78.80;;;;;;4145862;28;20197;-71
2022/06/27 14:04:12;;;;;;;2.07;1.73;;;20.10;77.20;;;;;;4146243;28;20201;-71
2022/06/27 14:08:31;;;;;;;1.80;1.30;;;19.80;79.50;;;;;;4146286;28;20636;-71
2022/06/27 14:10:32;;;;;;;1.27;1.17;;;19.90;79.90;;;;;;4127968;28;20178;-71
2022/06/27 14:12:33;;;;;;;1.40;1.30;;;20.10;81.60;;;;;;4145579;28;20205;-71
2022/06/27 14:14:33;;;;;;;3.20;1.53;;;20.20;80.70;;;;;;4146350;28;20173;-71
2022/06/27 14:16:34;;;;;;;1.30;1.20;;;20.20;87.40;;;;;;4128586;28;20182;-71
2022/06/27 14:18:34;;;;;;;1.60;1.50;;;20.10;87.60;;;;;;4146212;28;20630;-71
2022/06/27 14:20:35;;;;;;;1.30;1.03;;;20.00;87.00;;;;;;4145942;28;20197;-71
2022/06/27 14:22:36;;;;;;;1.47;1.20;;;19.90;82.60;;;;;;4145552;28;20258;-70
2022/06/27 14:24:37;;;;;;;2.53;1.63;;;20.10;85.70;;;;;;4128626;28;20281;-71
2022/06/27 14:26:38;;;;;;;1.73;1.40;;;20.20;89.70;;;;;;4128753;28;20656;-71
2022/06/27 14:28:38;;;;;;;2.07;1.37;;;20.40;90.80;;;;;;4146250;28;20668;-71
2022/06/27 14:30:39;;;;;;;2.30;1.67;;;20.80;86.10;;;;;;4146068;28;20265;-71
2022/06/27 14:32:40;;;;;;;1.40;1.30;;;20.80;84.20;;;;;;4145526;28;20575;-71
2022/06/27 14:34:40;;;;;;;1.47;1.33;;;20.60;84.60;;;;;;4145981;28;20177;-71
2022/06/27 14:36:41;;;;;;;1.47;1.37;;;20.40;90.80;;;;;;4145964;28;20181;-70
2022/06/27 14:38:42;;;;;;;1.73;1.63;;;20.20;87.50;;;;;;4145917;28;20232;-71
2022/06/27 14:40:43;;;;;;;1.93;1.50;;;20.00;85.40;;;;;;4145361;28;20181;-71
2022/06/27 14:42:43;;;;;;;1.77;1.67;;;19.40;89.50;;;;;;4128119;28;20298;-71
2022/06/27 14:44:44;;;;;;;5.10;1.93;;;19.20;90.50;;;;;;4145845;28;20201;-71
2022/06/27 14:46:45;;;;;;;3.80;2.10;;;19.10;94.30;;;;;;4145791;28;20185;-70
2022/06/27 14:48:45;;;;;;;4.57;2.17;;;18.90;97.40;;;;;;4145719;28;20222;-70
2022/06/27 14:50:46;;;;;;;1.60;1.37;;;19.20;97.80;;;;;;4145292;28;20177;-70
2022/06/27 14:52:46;;;;;;;1.87;1.50;;;19.80;95.90;;;;;;4145392;28;20884;-70
2022/06/27 14:54:47;;;;;;;3.90;2.20;;;20.30;94.00;;;;;;4145779;28;20273;-70
2022/06/27 14:56:48;;;;;;;2.53;1.83;;;20.40;96.70;;;;;;4146052;28;20185;-71
2022/06/27 14:58:48;;;;;;;6.63;2.07;;;20.50;97.70;;;;;;4146497;28;20240;-71
2022/06/27 15:00:49;;;;;;;2.13;1.93;;;20.50;96.60;;;;;;4145283;28;20239;-70
2022/06/27 15:02:49;;;;;;;4.17;3.67;;;20.40;95.40;;;;;;4128333;28;20202;-71
2022/06/27 15:04:53;;;;;;;2.37;1.40;;;20.00;95.50;;;;;;4145727;28;20191;-70
2022/06/27 15:06:54;;;;;;;2.13;1.97;;;19.80;95.80;;;;;;4145640;28;20200;-71
2022/06/27 15:08:54;;;;;;;4.10;2.17;;;20.30;98.20;;;;;;4145686;28;20174;-71
2022/06/27 15:13:14;;;;;;;1.70;1.60;;;19.70;95.40;;;;;;4145972;28;20207;-71
2022/06/27 15:15:15;;;;;;;4.47;1.60;;;19.80;96.60;;;;;;4128121;28;20182;-70
2022/06/27 15:17:15;;;;;;;2.43;1.90;;;19.70;96.30;;;;;;4145508;28;20178;-71
2022/06/27 15:19:21;;;;;;;2.60;1.97;;;19.50;95.50;;;;;;4128536;28;20233;-71
2022/06/27 15:21:22;;;;;;;2.43;2.23;;;19.50;96.50;;;;;;4146451;28;21258;-71
2022/06/27 15:23:22;;;;;;;2.47;2.27;;;19.60;95.80;;;;;;4151108;28;20216;-71
2022/06/27 15:25:23;;;;;;;3.77;2.93;;;19.50;95.80;;;;;;4150937;28;20178;-71
2022/06/27 15:27:23;;;;;;;3.10;2.80;;;18.70;99.60;;;;;;4150504;28;20178;-71
2022/06/27 15:29:24;;;;;;;2.93;2.10;;;18.60;99.90;;;;;;4149131;28;20173;-70
2022/06/27 15:31:25;;;;;;;2.40;2.07;;;18.70;99.90;;;;;;4148270;28;20189;-71
2022/06/27 15:33:26;;;;;;;2.63;2.20;;;19.10;99.90;;;;;;4148827;28;20721;-70
2022/06/27 15:35:27;;;;;;;2.40;2.20;;;19.50;98.40;;;;;;4148560;28;20189;-70
2022/06/27 15:37:27;;;;;;;3.23;2.70;;;19.50;98.50;;;;;;4148387;28;20181;-70
2022/06/27 15:39:28;;;;;;;2.43;2.20;;;19.40;98.30;;;;;;4148109;28;20539;-70
2022/06/27 15:41:29;;;;;;;2.97;2.67;;;19.10;99.10;;;;;;4147966;28;20237;-70
2022/06/27 15:43:30;;;;;;;2.57;2.17;;;19.00;97.80;;;;;;4148380;28;20219;-69
2022/06/27 15:45:30;;;;;;;2.57;2.30;;;18.80;99.90;;;;;;4148274;28;20563;-70
2022/06/27 15:47:31;;;;;;;2.33;2.13;;;18.80;99.90;;;;;;4148319;28;20192;-70
2022/06/27 15:49:31;;;;;;;2.33;2.13;;;18.90;99.90;;;;;;4148403;28;20201;-71
2022/06/27 15:51:32;;;;;;;2.50;2.30;;;19.00;98.60;;;;;;4147678;28;20693;-71
2022/06/27 15:53:33;;;;;;;2.30;1.87;;;19.30;98.40;;;;;;4130578;28;20300;-71
2022/06/27 15:55:35;;;;;;;2.67;2.10;;;19.70;96.80;;;;;;4148192;28;20192;-71
2022/06/27 15:57:35;;;;;;;2.70;2.00;;;19.90;97.50;;;;;;4148161;28;20174;-70
2022/06/27 15:59:36;;;;;;;2.67;2.40;;;20.20;96.10;;;;;;4148209;28;20221;-70
2022/06/27 16:01:37;;;;;;;1.93;1.83;;;20.70;93.80;;;;;;4147334;28;20566;-70
2022/06/27 16:03:38;;;;;;;2.23;2.03;;;20.60;92.80;;;;;;4148009;28;20213;-70
2022/06/27 16:05:38;;;;;;;2.00;1.80;;;20.30;93.60;;;;;;4148097;28;20212;-71
2022/06/27 16:07:39;;;;;;;1.87;1.77;;;20.10;94.00;;;;;;4148034;28;20240;-71
2022/06/27 16:09:40;;;;;;;2.60;1.90;;;20.00;94.90;;;;;;4130399;28;20183;-71
2022/06/27 16:11:40;;;;;;;2.27;1.67;;;19.80;95.40;;;;;;4147209;28;20255;-71
2022/06/27 16:13:41;;;;;;;2.60;1.90;;;19.50;94.30;;;;;;4147890;28;20911;-71
2022/06/27 16:15:42;;;;;;;2.67;2.20;;;19.20;96.20;;;;;;4147851;28;20268;-70
2022/06/27 16:17:43;;;;;;;2.13;2.00;;;18.90;99.90;;;;;;4147959;28;20186;-71
2022/06/27 16:19:43;;;;;;;4.63;2.40;;;18.80;99.90;;;;;;4147895;28;20746;-71
2022/06/27 16:21:44;;;;;;;2.20;2.00;;;19.00;99.90;;;;;;4129605;28;20715;-71
2022/06/27 16:23:44;;;;;;;2.40;2.20;;;19.10;96.80;;;;;;4147801;28;20240;-71
2022/06/27 16:25:45;;;;;;;3.10;1.73;;;18.90;99.70;;;;;;4147693;28;20178;-71
2022/06/27 16:27:45;;;;;;;3.83;2.00;;;19.10;98.80;;;;;;4130551;28;20664;-71
2022/06/27 16:29:46;;;;;;;2.10;1.90;;;19.30;98.40;;;;;;4147677;28;20182;-71
2022/06/27 16:31:47;;;;;;;2.20;1.87;;;19.10;99.60;;;;;;4146868;28;20205;-70
2022/06/27 16:33:47;;;;;;;1.83;1.73;;;19.00;98.20;;;;;;4146880;28;20261;-70
2022/06/27 16:35:48;;;;;;;3.73;1.90;;;18.80;98.10;;;;;;4147609;28;20197;-70
2022/06/27 16:37:49;;;;;;;2.30;2.10;;;18.70;99.90;;;;;;4147517;28;20217;-70
2022/06/27 16:39:49;;;;;;;2.23;2.00;;;18.60;99.90;;;;;;4147245;28;20573;-70
2022/06/27 16:44:09;;;;;;;2.23;2.03;;;18.60;99.90;;;;;;4147610;28;20248;-69
2022/06/27 16:46:10;;;;;;;2.30;2.10;;;18.50;99.90;;;;;;4147419;28;20178;-69
2022/06/27 16:48:11;;;;;;;2.07;1.83;;;18.50;99.90;;;;;;4147645;28;20174;-70
2022/06/27 16:50:12;;;;;;;2.20;2.00;;;18.70;99.90;;;;;;4148202;28;20228;-70
2022/06/27 16:52:13;;;;;;;2.20;2.00;;;18.90;99.90;;;;;;4131962;28;20218;-70
2022/06/27 16:54:13;;;;;;;3.00;2.70;;;19.00;99.60;;;;;;4149151;28;20185;-70
2022/06/27 16:56:14;;;;;;;2.70;2.50;;;19.20;98.30;;;;;;4147567;28;20657;-71
2022/06/27 16:58:14;;;;;;;3.17;2.53;;;19.30;97.30;;;;;;4147233;28;20272;-71
2022/06/27 17:00:15;;;;;;;2.93;2.10;;;19.30;97.80;;;;;;4147074;28;20196;-71